Time;durP1;ratioP1;P1;durP2;ratioP2;P2;SDS_P1;SDS_P2;PMS_P1;PMS_P2;Temp;Humidity;BMP_temperature;BMP_pressure;BME280_temperature;BME280_humidity;BME280_pressure;Samples;Min_cycle;Max_cycle;Signal;HPM_P1;HPM_P2
2022/10/16 00:01:26;;;;;;;11.18;4.45;;;;;;;6.72;69.59;100766.56;5091129;28;20040;-65
2022/10/16 00:03:52;;;;;;;9.75;5.10;;;;;;;6.84;70.01;100783.88;5095618;28;20084;-66
2022/10/16 00:06:21;;;;;;;8.32;4.47;;;;;;;6.70;69.61;100766.56;5104240;28;20027;-65
2022/10/16 00:08:47;;;;;;;7.03;4.80;;;;;;;6.81;69.63;100788.97;5103270;28;20319;-66
2022/10/16 00:11:19;;;;;;;8.18;4.47;;;;;;;6.77;69.37;100793.25;5085737;28;20032;-66
2022/10/16 00:13:47;;;;;;;9.93;4.78;;;;;;;6.76;69.76;100800.97;5102853;28;20024;-66
2022/10/16 00:16:14;;;;;;;8.85;4.65;;;;;;;6.78;69.47;100792.38;5092543;28;20312;-67
2022/10/16 00:18:40;;;;;;;6.40;4.10;;;;;;;6.83;68.86;100800.19;5084923;28;20024;-66
2022/10/16 00:21:08;;;;;;;9.13;4.78;;;;;;;6.83;68.92;100797.59;5088684;28;20374;-66
2022/10/16 00:23:59;;;;;;;8.38;4.90;;;;;;;6.72;69.24;100789.75;5090228;28;20159;-66
2022/10/16 00:26:25;;;;;;;;;;;;;;;6.77;69.71;100802.66;5103906;28;20069;-66
2022/10/16 00:28:51;;;;;;;8.55;5.25;;;;;;;6.72;70.12;100798.31;5091284;28;19904;-64
2022/10/16 00:31:19;;;;;;;7.10;4.60;;;;;;;6.66;69.88;100790.53;5090495;28;20048;-65
2022/10/16 00:33:45;;;;;;;6.57;4.97;;;;;;;6.69;70.33;100802.56;5096297;28;20049;-66
2022/10/16 00:36:13;;;;;;;8.63;5.15;;;;;;;6.57;70.64;100801.56;5100943;28;20064;-65
2022/10/16 00:38:39;;;;;;;7.65;4.60;;;;;;;6.61;70.72;100806.75;5084580;28;20074;-65
2022/10/16 00:41:12;;;;;;;7.85;4.43;;;;;;;6.48;70.25;100796.28;5105025;28;20336;-64
2022/10/16 00:43:58;;;;;;;6.70;4.72;;;;;;;6.48;71.10;100795.44;5088503;28;20032;-65
2022/10/16 00:46:26;;;;;;;9.20;5.07;;;;;;;6.53;71.01;100815.25;5097924;28;20028;-65
2022/10/16 00:48:57;;;;;;;9.02;5.20;;;;;;;6.45;71.79;100809.13;5094651;28;20047;-65
2022/10/16 00:51:32;;;;;;;8.63;5.03;;;;;;;6.25;71.92;100783.13;5088535;28;20025;-65
2022/10/16 00:53:58;;;;;;;10.05;5.28;;;;;;;6.42;71.17;100797.94;5095439;28;20036;-65
2022/10/16 00:56:24;;;;;;;10.13;5.47;;;;;;;6.41;71.30;100807.34;5104711;28;20032;-65
2022/10/16 00:58:50;;;;;;;9.70;4.57;;;;;;;6.35;71.21;100805.56;5086378;28;20185;-65
2022/10/16 01:01:15;;;;;;;8.38;4.85;;;;;;;6.42;70.75;100805.66;5096258;28;20081;-65
2022/10/16 01:03:41;;;;;;;7.00;4.68;;;;;;;6.45;70.71;100809.13;5095031;28;20032;-66
2022/10/16 01:06:25;;;;;;;9.10;4.53;;;;;;;6.34;70.82;100790.97;5087544;28;20397;-65
2022/10/16 01:08:57;;;;;;;10.07;5.07;;;;;;;6.26;71.07;100792.56;5102821;28;20039;-66
2022/10/16 01:12:05;;;;;;;5.95;4.43;;;;;;;6.44;70.78;100819.41;5084345;28;20020;-65
2022/10/16 01:14:37;;;;;;;8.57;4.85;;;;;;;6.50;70.45;100819.47;5082912;28;20201;-65
2022/10/16 01:17:15;;;;;;;8.48;4.60;;;;;;;6.46;70.12;100817.72;5083794;28;20107;-65
2022/10/16 01:19:57;;;;;;;7.72;4.80;;;;;;;6.44;70.53;100820.28;5099544;28;20028;-65
2022/10/16 01:22:25;;;;;;;;;;;;;;;6.40;71.32;100823.66;5094596;28;20046;-65
2022/10/16 01:24:55;;;;;;;9.82;5.13;;;;;;;6.27;71.38;100812.31;5103810;28;19911;-65
2022/10/16 01:27:35;;;;;;;9.25;4.38;;;;;;;6.41;70.99;100830.50;5099187;28;20513;-65
2022/10/16 01:30:04;;;;;;;9.93;4.28;;;;;;;6.37;71.25;100821.91;5102519;28;20051;-65
2022/10/16 01:32:36;;;;;;;8.98;4.93;;;;;;;6.35;71.29;100831.28;5087922;28;20028;-65
2022/10/16 01:35:23;;;;;;;7.28;4.70;;;;;;;6.36;71.12;100827.03;5104986;28;20067;-65
2022/10/16 01:38:12;;;;;;;7.15;4.45;;;;;;;6.33;71.13;100827.84;5086383;28;20052;-65
2022/10/16 01:40:42;;;;;;;7.63;4.32;;;;;;;6.26;70.63;100809.72;5099082;28;20138;-65
2022/10/16 01:43:17;;;;;;;8.57;4.22;;;;;;;6.22;71.14;100814.81;5092097;28;20021;-65
2022/10/16 01:45:45;;;;;;;7.10;4.43;;;;;;;6.28;71.18;100832.03;5091454;28;20028;-66
2022/10/16 01:48:18;;;;;;;8.45;4.65;;;;;;;6.24;71.09;100837.97;5100295;28;20089;-65
2022/10/16 01:50:49;;;;;;;10.52;4.65;;;;;;;6.26;71.00;100836.31;5083309;28;20062;-65
2022/10/16 01:53:16;;;;;;;8.93;4.65;;;;;;;6.26;71.12;100840.59;5084917;28;20028;-65
2022/10/16 01:55:46;;;;;;;9.88;4.45;;;;;;;6.19;71.50;100834.47;5103302;28;20036;-65
2022/10/16 01:58:13;;;;;;;7.70;4.60;;;;;;;6.13;71.21;100830.13;5091175;28;20200;-65
2022/10/16 02:00:43;;;;;;;8.05;4.82;;;;;;;6.07;71.70;100818.84;5090605;28;20324;-64
2022/10/16 02:03:12;;;;;;;8.23;4.70;;;;;;;6.04;71.46;100815.41;5100600;28;20119;-65
2022/10/16 02:05:42;;;;;;;6.55;4.40;;;;;;;6.08;72.04;100820.59;5083140;28;20031;-65
2022/10/16 02:08:08;;;;;;;6.72;4.90;;;;;;;6.12;71.59;100838.66;5103266;28;20044;-66
2022/10/16 02:10:35;;;;;;;8.27;4.40;;;;;;;6.15;71.71;100837.84;5088556;28;20035;-66
2022/10/16 02:13:05;;;;;;;9.93;4.95;;;;;;;6.03;71.64;100818.81;5093658;28;20369;-66
2022/10/16 02:15:51;;;;;;;9.15;4.45;;;;;;;6.08;71.73;100836.88;5093658;28;20093;-65
2022/10/16 02:18:16;;;;;;;9.18;4.82;;;;;;;6.11;71.74;100838.63;5083208;28;20324;-65
2022/10/16 02:20:57;;;;;;;7.55;4.80;;;;;;;6.00;71.96;100826.47;5083482;28;20028;-66
2022/10/16 02:23:34;;;;;;;8.60;4.75;;;;;;;6.05;71.82;100837.69;5091367;28;20028;-66
2022/10/16 02:26:03;;;;;;;6.78;4.13;;;;;;;6.00;72.05;100829.06;5101659;28;20028;-66
2022/10/16 02:28:39;;;;;;;8.15;4.43;;;;;;;5.96;71.73;100822.09;5100624;28;20055;-65
2022/10/16 02:31:09;;;;;;;7.10;4.53;;;;;;;5.85;72.02;100810.78;5092332;28;20043;-65
2022/10/16 02:33:38;;;;;;;8.65;5.03;;;;;;;5.96;71.85;100836.66;5093184;28;20028;-65
2022/10/16 02:36:04;;;;;;;6.80;4.43;;;;;;;5.96;72.49;100841.81;5101209;28;20040;-66
2022/10/16 02:38:30;;;;;;;9.48;5.00;;;;;;;5.92;72.16;100840.88;5083098;28;20095;-67
2022/10/16 02:40:56;;;;;;;9.10;5.32;;;;;;;5.95;72.34;100838.34;5100396;28;20312;-67
2022/10/16 02:43:22;;;;;;;10.90;5.22;;;;;;;5.87;72.81;100850.22;5090142;28;20027;-67
2022/10/16 02:45:47;;;;;;;7.65;4.93;;;;;;;5.84;72.87;100838.19;5091081;28;20095;-66
2022/10/16 02:48:13;;;;;;;9.07;5.68;;;;;;;5.87;72.76;100845.97;5099887;28;20197;-66
2022/10/16 02:50:38;;;;;;;8.02;5.65;;;;;;;5.82;72.79;100855.28;5082892;28;20031;-66
2022/10/16 02:53:04;;;;;;;8.70;4.45;;;;;;;5.84;73.29;100850.16;5101626;28;20036;-66
2022/10/16 02:55:30;;;;;;;8.30;4.82;;;;;;;5.84;72.87;100851.06;5092470;28;20032;-65
2022/10/16 02:57:55;;;;;;;10.57;4.70;;;;;;;5.72;73.16;100844.84;5096166;28;20032;-65
2022/10/16 03:00:22;;;;;;;8.90;4.53;;;;;;;5.77;72.80;100856.03;5085631;28;20082;-65
2022/10/16 03:02:47;;;;;;;8.88;4.70;;;;;;;5.78;73.03;100862.94;5086468;28;20244;-66
2022/10/16 03:05:13;;;;;;;6.18;4.38;;;;;;;5.76;72.63;100859.44;5106557;28;20024;-65
2022/10/16 03:07:39;;;;;;;7.72;4.57;;;;;;;5.74;73.02;100856.00;5103318;28;20235;-66
2022/10/16 03:10:05;;;;;;;8.75;4.85;;;;;;;5.78;72.86;100858.63;5096457;28;20020;-67
2022/10/16 03:12:31;;;;;;;7.05;4.88;;;;;;;5.76;72.96;100860.34;5090951;28;20227;-67
2022/10/16 03:14:57;;;;;;;7.43;4.47;;;;;;;5.76;72.94;100859.44;5105779;28;20028;-66
2022/10/16 03:17:23;;;;;;;6.55;4.80;;;;;;;5.69;72.96;100864.50;5089359;28;20097;-67
2022/10/16 03:19:49;;;;;;;7.38;4.88;;;;;;;5.70;72.91;100857.63;5095978;28;20031;-67
2022/10/16 03:22:15;;;;;;;7.30;5.00;;;;;;;5.57;73.35;100855.69;5089090;28;20052;-66
2022/10/16 03:24:40;;;;;;;9.45;4.50;;;;;;;5.66;73.31;100861.03;5099686;28;20356;-67
2022/10/16 03:27:06;;;;;;;8.60;4.78;;;;;;;5.55;73.26;100850.53;5088027;28;20091;-67
2022/10/16 03:29:32;;;;;;;7.50;5.60;;;;;;;5.61;73.88;100868.63;5106496;28;20027;-66
2022/10/16 03:31:58;;;;;;;7.88;4.90;;;;;;;5.58;73.70;100871.13;5088988;28;20028;-66
2022/10/16 03:34:25;;;;;;;11.63;5.72;;;;;;;5.52;73.98;100873.59;5103069;28;20234;-66
2022/10/16 03:36:51;;;;;;;9.23;5.25;;;;;;;5.52;73.87;100874.47;5097812;28;20043;-65
2022/10/16 03:39:17;;;;;;;9.60;4.85;;;;;;;5.49;73.75;100876.13;5089638;28;20020;-66
2022/10/16 03:41:43;;;;;;;11.70;5.28;;;;;;;5.48;73.93;100877.81;5105971;28;20100;-65
2022/10/16 03:44:08;;;;;;;8.10;4.97;;;;;;;5.49;74.17;100881.25;5105783;28;20320;-65
2022/10/16 03:46:34;;;;;;;7.70;5.25;;;;;;;5.45;74.19;100879.47;5106122;28;20032;-66
2022/10/16 03:48:59;;;;;;;6.97;5.00;;;;;;;5.42;73.71;100887.13;5096896;28;20020;-66
2022/10/16 03:51:25;;;;;;;9.52;5.20;;;;;;;5.44;74.01;100888.00;5090461;28;20185;-65
2022/10/16 03:53:50;;;;;;;7.95;5.20;;;;;;;5.42;73.45;100887.97;5106037;28;20323;-66
2022/10/16 03:56:17;;;;;;;7.15;5.40;;;;;;;5.48;73.78;100879.53;5086167;28;20024;-65
2022/10/16 03:58:43;;;;;;;7.70;5.00;;;;;;;5.47;73.81;100878.66;5093282;28;20112;-64
2022/10/16 04:01:08;;;;;;;8.20;5.53;;;;;;;5.42;74.42;100890.53;5085845;28;20033;-65
2022/10/16 04:03:34;;;;;;;9.70;5.03;;;;;;;5.34;74.78;100892.97;5091056;28;20023;-65
2022/10/16 04:05:59;;;;;;;7.38;5.95;;;;;;;5.41;74.53;100885.38;5101877;28;20024;-64
2022/10/16 04:08:25;;;;;;;9.10;5.28;;;;;;;5.33;73.83;100890.34;5091224;28;20028;-64
2022/10/16 04:10:51;;;;;;;7.25;5.38;;;;;;;5.40;74.04;100886.22;5102770;28;20035;-66
2022/10/16 04:13:16;;;;;;;9.43;5.05;;;;;;;5.36;73.79;100891.28;5096584;28;20028;-65
2022/10/16 04:15:44;;;;;;;6.43;5.18;;;;;;;5.34;73.83;100892.09;5091614;28;20028;-65
2022/10/16 04:18:09;;;;;;;10.40;5.15;;;;;;;5.42;73.74;100893.13;5103360;28;20024;-65
2022/10/16 04:20:35;;;;;;;12.40;5.57;;;;;;;5.40;73.78;100888.78;5100641;28;20039;-65
2022/10/16 04:23:00;;;;;;;6.90;4.70;;;;;;;5.46;73.01;100881.22;5096704;28;20038;-65
2022/10/16 04:25:26;;;;;;;8.52;5.65;;;;;;;5.44;72.93;100891.44;5092688;28;20035;-66
2022/10/16 04:27:55;;;;;;;8.23;4.80;;;;;;;5.53;72.82;100877.91;5084841;28;20142;-66
2022/10/16 04:30:21;;;;;;;6.88;4.97;;;;;;;5.55;72.84;100872.81;5087486;28;20083;-65
2022/10/16 04:32:53;;;;;;;7.85;5.18;;;;;;;5.55;73.47;100876.22;5106089;28;20020;-65
2022/10/16 04:35:19;;;;;;;9.15;5.10;;;;;;;5.53;73.72;100883.06;5106230;28;20059;-65
2022/10/16 04:37:45;;;;;;;7.68;5.28;;;;;;;5.47;74.12;100894.09;5092847;28;20051;-66
2022/10/16 04:40:11;;;;;;;8.52;5.22;;;;;;;5.48;74.03;100892.38;5091578;28;20061;-66
2022/10/16 04:42:37;;;;;;;8.40;4.78;;;;;;;5.41;74.17;100893.94;5090167;28;20324;-65
2022/10/16 04:45:05;;;;;;;7.55;4.78;;;;;;;5.43;74.19;100894.84;5089742;28;20051;-66
2022/10/16 04:47:30;;;;;;;10.48;5.68;;;;;;;5.48;74.25;100897.50;5084816;28;20092;-65
2022/10/16 04:49:56;;;;;;;8.55;5.43;;;;;;;5.52;74.10;100894.16;5084359;28;20029;-66
2022/10/16 04:52:24;;;;;;;8.55;4.95;;;;;;;5.59;73.59;100897.72;5096162;28;20042;-66
2022/10/16 04:54:50;;;;;;;8.38;5.68;;;;;;;5.57;74.29;100891.66;5097270;28;20024;-65
2022/10/16 04:57:16;;;;;;;7.97;5.90;;;;;;;5.58;73.80;100908.81;5097033;28;20095;-67
2022/10/16 04:59:42;;;;;;;9.10;5.85;;;;;;;5.59;74.19;100908.84;5104955;28;20056;-65
2022/10/16 05:02:07;;;;;;;7.93;5.00;;;;;;;5.50;73.03;100906.97;5086401;28;20028;-65
2022/10/16 05:04:33;;;;;;;6.43;4.88;;;;;;;5.59;72.87;100903.72;5097732;28;20024;-65
2022/10/16 05:06:59;;;;;;;9.07;5.07;;;;;;;5.62;72.93;100900.34;5099824;28;20024;-65
2022/10/16 05:09:24;;;;;;;12.82;5.07;;;;;;;5.63;72.33;100896.91;5101031;28;20111;-65
2022/10/16 05:11:50;;;;;;;9.27;5.20;;;;;;;5.76;72.41;100890.28;5104287;28;20077;-66
2022/10/16 05:14:16;;;;;;;8.45;4.80;;;;;;;5.78;72.04;100901.47;5083096;28;20032;-65
2022/10/16 05:16:41;;;;;;;8.30;5.30;;;;;;;5.75;72.31;100901.44;5097617;28;20024;-65
2022/10/16 05:19:07;;;;;;;9.52;4.97;;;;;;;5.75;72.16;100897.16;5095085;28;20044;-66
2022/10/16 05:21:32;;;;;;;8.25;5.10;;;;;;;5.83;71.87;100908.44;5088698;28;20273;-67
2022/10/16 05:23:58;;;;;;;9.60;5.78;;;;;;;5.87;72.18;100909.34;5087096;28;20043;-66
2022/10/16 05:26:23;;;;;;;7.50;4.93;;;;;;;5.95;71.79;100909.50;5084002;28;20086;-65
2022/10/16 05:28:49;;;;;;;9.88;5.05;;;;;;;5.95;71.62;100915.50;5098491;28;20050;-66
2022/10/16 05:31:15;;;;;;;12.98;6.32;;;;;;;5.99;71.25;100906.16;5093520;28;20070;-66
2022/10/16 05:33:41;;;;;;;12.52;5.72;;;;;;;6.04;70.97;100913.13;5094778;28;20024;-66
2022/10/16 05:36:09;;;;;;;7.53;5.03;;;;;;;6.13;70.91;100919.25;5104392;28;20288;-66
2022/10/16 05:38:35;;;;;;;7.53;4.95;;;;;;;6.16;71.06;100920.19;5095906;28;20020;-65
2022/10/16 05:41:02;;;;;;;11.90;6.13;;;;;;;6.02;71.12;100901.94;5093698;28;20039;-64
2022/10/16 05:43:28;;;;;;;8.25;5.88;;;;;;;6.05;70.58;100919.97;5091575;28;20024;-65
2022/10/16 05:45:56;;;;;;;9.30;5.68;;;;;;;6.18;70.39;100926.19;5092961;28;20027;-66
2022/10/16 05:48:22;;;;;;;14.82;7.28;;;;;;;6.22;70.65;100921.97;5093721;28;20413;-65
2022/10/16 05:50:47;;;;;;;12.20;6.18;;;;;;;6.34;70.10;100927.34;5091698;28;20032;-66
2022/10/16 05:53:13;;;;;;;10.18;6.25;;;;;;;6.39;70.75;100925.69;5087695;28;20034;-66
2022/10/16 05:55:39;;;;;;;11.65;6.55;;;;;;;6.50;70.79;100923.28;5096774;28;20069;-66
2022/10/16 05:58:04;;;;;;;12.82;6.97;;;;;;;6.47;70.64;100922.38;5094807;28;20020;-65
2022/10/16 06:00:30;;;;;;;9.30;6.30;;;;;;;6.35;69.97;100923.91;5087091;28;20023;-66
2022/10/16 06:02:55;;;;;;;12.13;6.90;;;;;;;6.46;69.75;100929.22;5098135;28;20213;-66
2022/10/16 06:05:21;;;;;;;11.75;7.13;;;;;;;6.53;69.78;100928.47;5092311;28;20095;-65
2022/10/16 06:07:46;;;;;;;13.45;7.20;;;;;;;6.41;69.89;100917.13;5093837;28;20459;-65
2022/10/16 06:10:12;;;;;;;12.15;7.40;;;;;;;6.62;70.03;100930.31;5091229;28;20039;-65
2022/10/16 06:12:37;;;;;;;16.35;7.05;;;;;;;6.66;69.44;100932.09;5091244;28;20065;-66
2022/10/16 06:15:03;;;;;;;12.75;7.20;;;;;;;6.74;69.15;100916.75;5090437;28;20111;-66
2022/10/16 06:17:29;;;;;;;10.98;7.75;;;;;;;6.87;69.43;100930.69;5091816;28;20065;-65
2022/10/16 06:19:55;;;;;;;14.43;7.65;;;;;;;6.91;68.37;100935.91;5094370;28;20265;-65
2022/10/16 06:22:20;;;;;;;9.35;7.07;;;;;;;6.89;67.98;100937.56;5098372;28;20031;-65
2022/10/16 06:24:47;;;;;;;11.95;7.32;;;;;;;6.96;68.48;100935.97;5089058;28;20324;-65
2022/10/16 06:27:13;;;;;;;11.68;7.18;;;;;;;7.07;68.15;100931.81;5091091;28;20032;-65
2022/10/16 06:29:38;;;;;;;19.95;8.27;;;;;;;7.32;68.38;100939.00;5095471;28;20028;-66
2022/10/16 06:32:04;;;;;;;16.90;7.57;;;;;;;7.54;67.45;100929.78;5096545;28;20016;-65
2022/10/16 06:34:29;;;;;;;12.80;7.53;;;;;;;7.86;65.53;100937.03;5102886;28;20107;-65
2022/10/16 06:36:55;;;;;;;16.48;7.18;;;;;;;7.98;65.34;100934.56;5102002;28;20040;-65
2022/10/16 06:39:20;;;;;;;13.35;6.80;;;;;;;8.37;64.74;100935.75;5099373;28;20216;-65
2022/10/16 06:41:46;;;;;;;15.98;7.75;;;;;;;8.53;65.43;100935.91;5087515;28;20032;-67
2022/10/16 06:44:12;;;;;;;10.65;6.80;;;;;;;8.60;63.32;100945.41;5106503;28;20031;-66
2022/10/16 06:46:37;;;;;;;16.30;6.93;;;;;;;8.66;64.22;100942.88;5101745;28;20114;-67
2022/10/16 06:49:03;;;;;;;12.13;6.80;;;;;;;8.62;64.27;100939.41;5091182;28;20036;-65
2022/10/16 06:51:29;;;;;;;12.68;7.72;;;;;;;8.59;63.77;100929.06;5096424;28;20395;-67
2022/10/16 06:53:58;;;;;;;14.38;6.80;;;;;;;8.76;63.43;100944.66;5095434;28;20027;-66
2022/10/16 06:56:26;;;;;;;12.38;7.20;;;;;;;8.69;62.18;100924.81;5096089;28;20297;-66
2022/10/16 06:58:53;;;;;;;14.32;7.25;;;;;;;8.92;63.36;100944.75;5094507;28;20095;-66
2022/10/16 07:01:22;;;;;;;18.45;7.65;;;;;;;8.82;62.94;100928.31;5094772;28;20054;-66
2022/10/16 07:03:48;;;;;;;11.40;6.47;;;;;;;9.04;60.96;100943.97;5097352;28;20031;-66
2022/10/16 07:06:21;;;;;;;8.27;6.30;;;;;;;9.39;61.02;100951.91;5095619;28;20028;-66
2022/10/16 07:08:48;;;;;;;14.82;7.53;;;;;;;9.70;60.48;100951.13;5093450;28;20054;-66
2022/10/16 07:11:16;;;;;;;11.32;7.15;;;;;;;9.92;58.94;100927.03;5108236;28;20036;-68
2022/10/16 07:13:44;;;;;;;16.63;6.82;;;;;;;10.28;58.50;100948.63;5103771;28;20320;-66
2022/10/16 07:16:13;;;;;;;12.70;6.68;;;;;;;10.34;58.07;100946.06;5098190;28;20308;-65
2022/10/16 07:18:40;;;;;;;13.60;7.25;;;;;;;10.35;58.76;100945.19;5086081;28;20081;-64
2022/10/16 07:21:16;;;;;;;15.27;7.30;;;;;;;10.20;58.65;100955.50;5086312;28;20028;-65
2022/10/16 07:23:42;;;;;;;13.82;6.75;;;;;;;10.31;58.49;100956.38;5100928;28;20094;-64
2022/10/16 07:26:08;;;;;;;10.68;6.82;;;;;;;10.23;58.26;100958.09;5089740;28;20296;-65
2022/10/16 07:28:34;;;;;;;12.85;6.78;;;;;;;10.19;57.36;100962.44;5096669;28;20320;-64
2022/10/16 07:31:02;;;;;;;14.27;6.90;;;;;;;10.29;58.19;100959.81;5098742;28;20020;-66
2022/10/16 07:33:28;;;;;;;13.02;6.45;;;;;;;10.25;57.16;100958.13;5079456;28;20247;-65
2022/10/16 07:35:55;;;;;;;14.70;6.32;;;;;;;10.36;57.25;100961.59;5106219;28;20081;-64
2022/10/16 07:38:21;;;;;;;12.98;6.43;;;;;;;10.19;57.01;100952.06;5094863;28;20043;-65
2022/10/16 07:40:47;;;;;;;14.10;6.85;;;;;;;10.27;56.90;100956.38;5091000;28;20212;-65
2022/10/16 07:43:13;;;;;;;12.23;7.20;;;;;;;10.43;56.93;100942.63;5091912;28;20024;-66
2022/10/16 07:45:48;;;;;;;17.17;6.43;;;;;;;10.55;57.50;100951.25;5089864;28;20028;-66
2022/10/16 07:48:14;;;;;;;19.65;6.70;;;;;;;10.32;56.54;100946.91;5104007;28;20028;-66
2022/10/16 07:50:41;;;;;;;10.30;6.55;;;;;;;10.44;57.90;100952.09;5106406;28;20028;-66
2022/10/16 07:53:07;;;;;;;11.93;6.40;;;;;;;10.40;56.35;100952.97;5089694;28;20078;-66
2022/10/16 07:55:32;;;;;;;10.82;7.07;;;;;;;10.57;56.40;100947.78;5096947;28;20031;-67
2022/10/16 07:57:58;;;;;;;14.63;7.07;;;;;;;10.67;55.92;100941.75;5099119;28;20051;-66
2022/10/16 08:00:24;;;;;;;17.15;6.85;;;;;;;10.61;55.39;100946.91;5102397;28;20073;-65
2022/10/16 08:02:49;;;;;;;15.98;6.38;;;;;;;10.85;55.40;100950.34;5084219;28;20055;-65
2022/10/16 08:05:15;;;;;;;11.25;6.28;;;;;;;10.38;55.07;100913.28;5102731;28;20209;-65
2022/10/16 08:07:41;;;;;;;16.08;6.80;;;;;;;10.66;55.09;100954.66;5091954;28;20044;-64
2022/10/16 08:10:06;;;;;;;13.57;6.70;;;;;;;10.73;55.15;100959.00;5091992;28;20062;-66
2022/10/16 08:12:32;;;;;;;14.55;6.68;;;;;;;11.01;55.33;100949.41;5088460;28;20070;-66
2022/10/16 08:14:58;;;;;;;15.13;6.65;;;;;;;11.49;54.04;100956.19;5105377;28;20024;-66
2022/10/16 08:17:23;;;;;;;12.13;6.40;;;;;;;11.70;53.34;100953.47;5086843;28;20230;-68
2022/10/16 08:19:49;;;;;;;12.68;6.35;;;;;;;11.72;53.37;100949.13;5098780;28;20020;-67
2022/10/16 08:22:14;;;;;;;13.13;6.30;;;;;;;11.86;52.47;100958.59;5099007;28;20036;-67
2022/10/16 08:24:40;;;;;;;15.40;6.90;;;;;;;11.74;51.73;100962.09;5095323;28;20217;-67
2022/10/16 08:27:06;;;;;;;9.57;5.57;;;;;;;12.04;52.81;100958.50;5105534;28;20081;-66
2022/10/16 08:29:32;;;;;;;9.65;6.32;;;;;;;12.16;52.02;100949.75;5085924;28;20036;-67
2022/10/16 08:31:58;;;;;;;13.00;6.30;;;;;;;12.27;50.71;100957.47;5088493;28;20035;-66
2022/10/16 08:34:24;;;;;;;15.88;6.40;;;;;;;12.60;50.92;100947.66;5101885;28;20071;-66
2022/10/16 08:36:49;;;;;;;15.65;6.20;;;;;;;13.27;48.92;100953.03;5104826;28;20027;-66
2022/10/16 08:39:15;;;;;;;14.32;5.82;;;;;;;13.56;47.02;100951.81;5086622;28;20103;-66
2022/10/16 08:41:59;;;;;;;15.77;6.38;;;;;;;14.28;46.53;100947.25;5067771;28;20276;-68
2022/10/16 08:44:43;;;;;;;13.75;6.35;;;;;;;14.44;45.88;100950.50;5086120;28;20343;-69
2022/10/16 08:47:30;;;;;;;13.88;6.75;;;;;;;14.54;45.05;100944.22;5100773;28;20062;-67
2022/10/16 08:49:59;;;;;;;12.95;5.65;;;;;;;14.90;43.57;100936.66;5092877;28;20028;-68
2022/10/16 08:52:35;;;;;;;12.55;6.32;;;;;;;15.42;44.62;100932.16;5092221;28;20040;-69
2022/10/16 08:55:01;;;;;;;14.35;6.47;;;;;;;15.52;43.38;100945.88;5093068;28;20024;-68
2022/10/16 08:57:27;;;;;;;10.80;5.80;;;;;;;14.96;43.16;100947.00;5095337;28;20069;-68
2022/10/16 09:00:00;;;;;;;11.27;5.80;;;;;;;15.24;42.98;100953.41;5093354;28;20188;-69
2022/10/16 09:02:57;;;;;;;12.27;5.95;;;;;;;15.75;41.68;100927.06;5089704;28;20103;-68
2022/10/16 09:06:07;;;;;;;9.23;5.25;;;;;;;15.39;41.98;100947.00;5090482;28;20306;-68
2022/10/16 09:08:46;;;;;;;13.00;5.63;;;;;;;15.38;42.55;100947.88;5083910;28;20040;-67
2022/10/16 09:11:39;;;;;;;19.42;5.95;;;;;;;15.75;42.27;100950.56;5100145;28;20091;-67
2022/10/16 09:14:10;;;;;;;9.13;5.22;;;;;;;15.63;42.45;100956.91;5088754;28;20024;-67
2022/10/16 09:16:44;;;;;;;11.88;6.00;;;;;;;14.97;43.03;100934.78;5094013;28;20027;-68
2022/10/16 09:19:39;;;;;;;11.43;5.85;;;;;;;14.84;43.41;100944.59;5095095;28;20025;-68
2022/10/16 09:22:14;;;;;;;16.02;5.55;;;;;;;14.70;43.70;100944.00;5089453;28;20024;-67
2022/10/16 09:24:40;;;;;;;11.15;5.05;;;;;;;13.92;44.88;100939.16;5087020;28;20044;-68
2022/10/16 09:27:11;;;;;;;13.27;6.10;;;;;;;13.96;45.80;100923.44;5089490;28;20054;-71
2022/10/16 09:29:36;;;;;;;11.00;5.10;;;;;;;13.81;45.41;100944.53;5089374;28;20255;-68
2022/10/16 09:32:18;;;;;;;10.32;5.30;;;;;;;13.67;45.90;100916.09;5102695;28;20028;-68
2022/10/16 09:34:51;;;;;;;11.35;4.75;;;;;;;13.62;46.45;100925.69;5105978;28;20111;-70
2022/10/16 09:37:19;;;;;;;10.52;5.07;;;;;;;13.40;46.46;100933.78;5098845;28;20047;-68
2022/10/16 09:39:47;;;;;;;11.77;4.63;;;;;;;13.25;46.72;100945.22;5090580;28;20028;-67
2022/10/16 09:42:16;;;;;;;14.75;4.88;;;;;;;13.08;46.79;100918.53;5091388;28;20063;-69
2022/10/16 09:44:47;;;;;;;14.57;4.80;;;;;;;13.27;46.61;100930.44;5092207;28;20036;-67
2022/10/16 09:47:20;;;;;;;7.47;3.55;;;;;;;13.07;46.09;100919.44;5092365;28;20032;-69
2022/10/16 09:50:23;;;;;;;7.57;3.83;;;;;;;13.16;47.32;100934.91;5091552;28;20020;-67
2022/10/16 09:52:48;;;;;;;12.07;4.38;;;;;;;13.19;46.63;100928.81;5082212;28;21053;-67
2022/10/16 09:55:17;;;;;;;8.55;4.00;;;;;;;13.18;46.77;100934.91;5090290;28;20047;-67
2022/10/16 09:57:53;;;;;;;4.95;3.88;;;;;;;12.94;46.37;100926.53;5091766;28;20020;-68
2022/10/16 10:00:21;;;;;;;8.05;4.00;;;;;;;13.10;47.86;100924.59;5092854;28;20030;-67
2022/10/16 10:02:47;;;;;;;7.60;3.85;;;;;;;13.16;46.20;100924.53;5092789;28;20020;-68
2022/10/16 10:05:28;;;;;;;8.25;3.85;;;;;;;13.14;46.40;100934.09;5092524;28;20309;-68
2022/10/16 10:07:56;;;;;;;9.60;4.37;;;;;;;13.24;47.52;100930.50;5086932;28;20025;-66
2022/10/16 10:10:25;;;;;;;12.60;4.13;;;;;;;13.01;46.82;100901.28;5094503;28;20143;-66
2022/10/16 10:12:51;;;;;;;9.93;3.88;;;;;;;13.11;46.23;100921.09;5096934;28;20029;-66
2022/10/16 10:15:21;;;;;;;10.52;3.97;;;;;;;13.22;46.96;100916.63;5093049;28;20081;-67
2022/10/16 10:17:55;;;;;;;10.23;4.10;;;;;;;13.22;47.92;100926.19;5089351;28;20093;-67
2022/10/16 10:20:38;;;;;;;6.82;3.40;;;;;;;13.03;45.38;100908.19;5091327;28;20053;-68
2022/10/16 10:23:39;;;;;;;6.97;3.17;;;;;;;13.15;45.48;100912.38;5093748;28;20091;-68
2022/10/16 10:26:11;;;;;;;9.45;3.42;;;;;;;13.11;45.34;100919.38;5018855;28;20029;-66
2022/10/16 10:29:00;;;;;;;8.48;3.45;;;;;;;12.81;45.38;100904.97;5077044;28;20039;-65
2022/10/16 10:31:49;;;;;;;7.70;3.45;;;;;;;12.88;45.42;100896.25;5086416;28;20036;-67
2022/10/16 10:34:52;;;;;;;10.38;3.50;;;;;;;12.80;46.24;100908.47;5099279;28;20110;-65
2022/10/16 10:37:23;;;;;;;5.43;3.33;;;;;;;12.89;45.68;100918.75;5095012;28;20099;-66
2022/10/16 10:40:22;;;;;;;7.57;3.45;;;;;;;12.87;45.47;100899.72;5082863;28;20091;-66
2022/10/16 10:42:58;;;;;;;5.82;2.95;;;;;;;12.81;45.35;100904.97;5085153;28;20099;-67
2022/10/16 10:45:31;;;;;;;7.78;3.38;;;;;;;12.72;45.68;100911.13;5100093;28;20086;-67
2022/10/16 10:48:23;;;;;;;8.95;3.05;;;;;;;12.71;45.65;100888.63;5093804;28;20024;-67
2022/10/16 10:50:57;;;;;;;10.02;3.35;;;;;;;12.81;45.39;100904.13;5091048;28;20028;-67
2022/10/16 10:53:46;;;;;;;10.32;3.25;;;;;;;12.94;46.69;100914.38;5092660;28;20032;-67
2022/10/16 10:56:45;;;;;;;9.55;3.58;;;;;;;13.02;47.07;100903.03;5091556;28;20276;-67
2022/10/16 10:59:25;;;;;;;7.40;3.38;;;;;;;13.17;46.70;100904.56;5093060;28;20036;-68
2022/10/16 11:02:00;;;;;;;4.40;3.45;;;;;;;12.94;46.18;100885.78;5090489;28;20036;-67
2022/10/16 11:04:46;;;;;;;10.00;3.58;;;;;;;13.02;46.08;100887.41;5091407;28;20331;-67
2022/10/16 11:07:25;;;;;;;5.93;3.30;;;;;;;12.97;47.03;100878.78;5090916;28;20079;-68
2022/10/16 11:09:58;;;;;;;7.05;3.47;;;;;;;13.02;45.76;100872.66;5092164;28;20082;-67
2022/10/16 11:12:38;;;;;;;6.15;3.25;;;;;;;13.00;46.16;100873.56;5091356;28;20027;-68
2022/10/16 11:15:25;;;;;;;8.10;3.25;;;;;;;13.01;45.95;100875.28;5095860;28;20197;-67
2022/10/16 11:18:05;;;;;;;8.15;3.72;;;;;;;13.00;46.27;100887.44;5091727;28;20024;-67
2022/10/16 11:20:47;;;;;;;7.65;3.30;;;;;;;12.79;45.33;100870.34;5094651;28;20020;-68
2022/10/16 11:23:29;;;;;;;9.32;3.53;;;;;;;12.91;47.13;100871.94;5099004;28;20077;-67
2022/10/16 11:26:00;;;;;;;6.60;3.53;;;;;;;12.97;46.31;100884.88;5100241;28;20036;-67
2022/10/16 11:28:35;;;;;;;5.97;3.38;;;;;;;13.16;46.70;100889.84;5098471;28;20172;-66
2022/10/16 11:31:13;;;;;;;6.30;3.30;;;;;;;13.15;46.88;100881.16;5085473;28;20024;-68
2022/10/16 11:33:51;;;;;;;7.20;3.42;;;;;;;12.95;46.01;100877.09;5094942;28;20049;-68
2022/10/16 11:36:23;;;;;;;8.73;3.38;;;;;;;12.94;46.62;100880.56;5106304;28;20149;-68
2022/10/16 11:38:59;;;;;;;4.03;2.97;;;;;;;12.96;46.58;100883.16;5085703;28;20040;-68
2022/10/16 11:41:31;;;;;;;7.25;3.42;;;;;;;13.05;46.39;100879.56;5102260;28;20277;-69